Hooksett, NH (03106)

8:36 AM EST on December 06, 2016 (GMT -0500)
Birch Hill Rd/ Pinnacle Peak Base | | Change Station

Elev 312 ft 43.10 °N, 71.47 °W | Updated 9 seconds ago

Partly Cloudy
Partly Cloudy
22.6 °F
Feels Like 23 °F
N
0.0
Wind Variable Wind from ESE
Gusts 0.0 mph

Today
High -- | Low -- °F
--% Chance of Precip.
Yesterday
High -- | Low -- °F
Precip. -- in
Pressure 30.12 in
Visibility 7.0 miles
Clouds Few 3800 ft
Windchill 23 °F
Dew Point 22 °F
Humidity 96%
Rainfall 0.00 in
Snow Depth Not available.
7:03 AM 4:10 PM
Waxing Crescent, 42% visible
METAR KCON 061251Z AUTO 00000KT 7SM FEW038 M07/M08 A3010 RMK AO2 SLP199 T10671078
Pressure 30.12 in
Visibility 7.0 miles
Clouds Few 3800 ft
Windchill 23 °F
Dew Point 22 °F
Humidity 96%
Rainfall 0.00 in
Snow Depth Not available.
7:03 AM 4:10 PM
Waxing Crescent, 42% visible
METAR KCON 061251Z AUTO 00000KT 7SM FEW038 M07/M08 A3010 RMK AO2 SLP199 T10671078

10-Day Weather Forecast

Almanac

Astronomy

Dec. 06, 2016 Rise Set
Actual Time
Civil Twilight
Nautical Twilight
Astronomical Twilight
Moon
Length of Visible Light
Length of Day
Tomorrow will be .
, % of the Moon is Illuminated

Today's Extremes

State Highs State Lows

Community

WunderPhotos

Upload Photos

1,955,945 photos uploaded!

WunderBlog® & News

Nearby

Air Quality

  Air Quality AQ Index Pollutant
Not available.

Snow Depth

Station Depth Elevation

Earthquake Activity

City Distance Mag. Time & Date
Minimum magnitude displayed is 2.5.

Coastal Water Temperatures

Place Temperature

Stations

Nearby Weather Stations

Station Location Temp. Windchill Dew Point Humidity Wind Precip. Elev Updated Type
                   

Watches & Warnings

There are currently no watches in effect.